Time;durP1;ratioP1;P1;durP2;ratioP2;P2;SDS_P1;SDS_P2;PMS_P1;PMS_P2;Temp;Humidity;BMP_temperature;BMP_pressure;BME280_temperature;BME280_humidity;BME280_pressure;Samples;Min_cycle;Max_cycle;Signal;HPM_P1;HPM_P2
2024/02/21 00:02:21;;;;;;;4.63;1.50;;;;;;;;;;6247745;23;20168;-80
2024/02/21 00:04:51;;;;;;;4.90;1.70;;;;;;;;;;6220380;23;20315;-80
2024/02/21 00:07:20;;;;;;;4.93;2.00;;;;;;;;;;6247426;23;20243;-79
2024/02/21 00:09:50;;;;;;;4.77;1.70;;;;;;;;;;6220814;23;20338;-80
2024/02/21 00:12:18;;;;;;;5.00;2.10;;;;;;;;;;6248095;23;20227;-80
2024/02/21 00:14:50;;;;;;;5.00;1.53;;;;;;;;;;6221986;23;20207;-80
2024/02/21 00:17:22;;;;;;;6.00;2.00;;;;;;;;;;6247892;23;20236;-80
2024/02/21 00:19:49;;;;;;;5.20;1.83;;;;;;;;;;6248164;23;20161;-80
2024/02/21 00:22:18;;;;;;;5.80;1.87;;;;;;;;;;6247606;23;20165;-80
2024/02/21 00:24:45;;;;;;;4.97;1.90;;;;;;;;;;6248367;23;20211;-80
2024/02/21 00:27:16;;;;;;;5.37;1.70;;;;;;;;;;6248079;23;20216;-80
2024/02/21 00:29:43;;;;;;;5.73;1.80;;;;;;;;;;6221107;23;20188;-82
2024/02/21 00:32:10;;;;;;;3.97;1.80;;;;;;;;;;6220981;23;20188;-80
2024/02/21 00:34:43;;;;;;;4.30;1.80;;;;;;;;;;6221774;23;20167;-80
2024/02/21 00:37:10;;;;;;;5.60;2.00;;;;;;;;;;6196083;23;20169;-79
2024/02/21 00:39:38;;;;;;;3.20;1.70;;;;;;;;;;6221160;23;20227;-79
2024/02/21 00:42:07;;;;;;;6.27;2.00;;;;;;;;;;6247410;23;20219;-79
2024/02/21 00:44:37;;;;;;;5.37;1.80;;;;;;;;;;6234035;23;20180;-79
2024/02/21 00:47:04;;;;;;;3.60;1.63;;;;;;;;;;6247743;23;20164;-79
2024/02/21 00:49:33;;;;;;;4.67;2.27;;;;;;;;;;6247451;23;20192;-79
2024/02/21 00:52:02;;;;;;;5.67;2.20;;;;;;;;;;6247717;23;20161;-79
2024/02/21 00:54:35;;;;;;;5.17;2.07;;;;;;;;;;6248149;23;20203;-79
2024/02/21 00:57:15;;;;;;;5.47;2.10;;;;;;;;;;6247408;23;20231;-79
2024/02/21 00:59:42;;;;;;;5.17;1.90;;;;;;;;;;6220642;23;20169;-79
2024/02/21 01:02:14;;;;;;;4.73;1.97;;;;;;;;;;6220595;23;20215;-79
2024/02/21 01:04:42;;;;;;;7.37;1.80;;;;;;;;;;6247980;23;20153;-80
2024/02/21 01:07:16;;;;;;;5.73;1.97;;;;;;;;;;6223105;23;20149;-79
2024/02/21 01:09:43;;;;;;;6.37;2.17;;;;;;;;;;6247636;23;20180;-80
2024/02/21 01:12:12;;;;;;;2.60;1.67;;;;;;;;;;6221688;23;20248;-79
2024/02/21 01:14:42;;;;;;;5.93;2.20;;;;;;;;;;6247158;23;20154;-79
2024/02/21 01:17:10;;;;;;;4.77;1.70;;;;;;;;;;6247302;23;20172;-79
2024/02/21 01:19:40;;;;;;;6.23;1.80;;;;;;;;;;6247342;23;20168;-79
2024/02/21 01:22:11;;;;;;;5.40;1.80;;;;;;;;;;6247098;23;20163;-79
2024/02/21 01:24:39;;;;;;;5.47;2.00;;;;;;;;;;6247258;23;20161;-79
2024/02/21 01:27:06;;;;;;;5.40;2.23;;;;;;;;;;6220810;23;20172;-79
2024/02/21 01:29:32;;;;;;;5.87;1.83;;;;;;;;;;6220366;23;20233;-79
2024/02/21 01:31:59;;;;;;;5.70;1.90;;;;;;;;;;6247218;23;20327;-79
2024/02/21 01:34:29;;;;;;;2.63;1.40;;;;;;;;;;6220059;23;20212;-79
2024/02/21 01:36:59;;;;;;;4.80;1.77;;;;;;;;;;6247374;23;20153;-79
2024/02/21 01:39:28;;;;;;;3.50;1.83;;;;;;;;;;6246818;23;20165;-79
2024/02/21 01:41:58;;;;;;;4.53;2.37;;;;;;;;;;6219983;23;20164;-78
2024/02/21 01:44:25;;;;;;;4.20;1.80;;;;;;;;;;6246868;23;20165;-79
2024/02/21 01:46:53;;;;;;;4.70;2.00;;;;;;;;;;6247250;23;20172;-79
2024/02/21 01:49:21;;;;;;;5.20;2.00;;;;;;;;;;6247112;23;20190;-78
2024/02/21 01:51:48;;;;;;;5.27;2.10;;;;;;;;;;6246915;23;20196;-79
2024/02/21 01:54:18;;;;;;;4.50;1.57;;;;;;;;;;6220348;23;20172;-79
2024/02/21 01:56:48;;;;;;;4.43;1.70;;;;;;;;;;6195461;23;20172;-79
2024/02/21 01:59:17;;;;;;;4.67;1.90;;;;;;;;;;6247033;23;20211;-79
2024/02/21 02:01:44;;;;;;;5.13;1.70;;;;;;;;;;6246884;23;20176;-79
2024/02/21 02:04:13;;;;;;;4.53;2.07;;;;;;;;;;6220839;23;20192;-79
2024/02/21 02:06:44;;;;;;;5.50;1.73;;;;;;;;;;6220009;23;20237;-79
2024/02/21 02:09:11;;;;;;;4.27;1.70;;;;;;;;;;6246571;23;20180;-79
2024/02/21 02:11:39;;;;;;;4.57;1.73;;;;;;;;;;6246572;23;20226;-79
2024/02/21 02:14:15;;;;;;;3.43;1.70;;;;;;;;;;6247130;23;20193;-79
2024/02/21 02:16:46;;;;;;;3.50;1.77;;;;;;;;;;6220917;23;20219;-80
2024/02/21 02:19:17;;;;;;;4.37;1.60;;;;;;;;;;6246698;23;20149;-79
2024/02/21 02:21:55;;;;;;;4.53;1.60;;;;;;;;;;6246626;23;20161;-79
2024/02/21 02:24:23;;;;;;;4.10;1.63;;;;;;;;;;6247103;23;20618;-79
2024/02/21 02:26:56;;;;;;;3.87;1.63;;;;;;;;;;6247089;23;20588;-79
2024/02/21 02:29:23;;;;;;;4.53;1.50;;;;;;;;;;6247456;23;20181;-79
2024/02/21 02:31:54;;;;;;;4.50;1.47;;;;;;;;;;6219997;23;20196;-79
2024/02/21 02:34:21;;;;;;;4.23;1.70;;;;;;;;;;6220094;23;20169;-79
2024/02/21 02:36:55;;;;;;;5.03;1.70;;;;;;;;;;6247502;23;20152;-79
2024/02/21 02:39:25;;;;;;;5.27;1.47;;;;;;;;;;6221745;23;20165;-79
2024/02/21 02:41:51;;;;;;;5.80;1.50;;;;;;;;;;6247662;23;20184;-79
2024/02/21 02:44:23;;;;;;;4.43;1.50;;;;;;;;;;6247462;23;20687;-79
2024/02/21 02:46:52;;;;;;;3.80;1.40;;;;;;;;;;6247938;23;20161;-79
2024/02/21 02:49:21;;;;;;;4.17;1.40;;;;;;;;;;6220672;23;20192;-79
2024/02/21 02:51:47;;;;;;;3.57;1.70;;;;;;;;;;6247685;23;20177;-79
2024/02/21 02:54:14;;;;;;;3.73;1.60;;;;;;;;;;6247610;23;20165;-79
2024/02/21 02:56:44;;;;;;;2.47;1.57;;;;;;;;;;6247451;23;20183;-79
2024/02/21 02:59:16;;;;;;;4.93;1.40;;;;;;;;;;6247652;23;20195;-80
2024/02/21 03:01:45;;;;;;;4.90;1.80;;;;;;;;;;6221214;23;20169;-80
2024/02/21 03:04:14;;;;;;;4.87;1.60;;;;;;;;;;6248134;23;20165;-79
2024/02/21 03:06:41;;;;;;;5.03;2.03;;;;;;;;;;6222523;23;20166;-79
2024/02/21 03:09:10;;;;;;;3.97;1.47;;;;;;;;;;6249290;23;20185;-80
2024/02/21 03:11:44;;;;;;;3.40;1.77;;;;;;;;;;6223618;23;20146;-79
2024/02/21 03:14:13;;;;;;;2.93;1.40;;;;;;;;;;6221991;23;20177;-79
2024/02/21 03:16:43;;;;;;;4.37;1.70;;;;;;;;;;6221914;23;20177;-79
2024/02/21 03:19:10;;;;;;;4.00;1.60;;;;;;;;;;6248598;23;20620;-79
2024/02/21 03:21:39;;;;;;;3.57;1.57;;;;;;;;;;6248583;23;20248;-79
2024/02/21 03:24:06;;;;;;;2.97;1.47;;;;;;;;;;6221652;23;20611;-80
2024/02/21 03:26:36;;;;;;;3.67;1.80;;;;;;;;;;6222828;23;20165;-79
2024/02/21 03:29:04;;;;;;;5.10;1.87;;;;;;;;;;6221234;23;20172;-79
2024/02/21 03:31:38;;;;;;;5.97;1.70;;;;;;;;;;6196535;23;20201;-79
2024/02/21 03:34:05;;;;;;;5.67;1.63;;;;;;;;;;6221412;23;20198;-79
2024/02/21 03:36:35;;;;;;;3.60;1.63;;;;;;;;;;6221060;23;20172;-79
2024/02/21 03:39:03;;;;;;;5.00;1.80;;;;;;;;;;6247963;23;20157;-79
2024/02/21 03:41:30;;;;;;;4.00;1.53;;;;;;;;;;6221293;23;20619;-79
2024/02/21 03:43:56;;;;;;;6.00;1.87;;;;;;;;;;6248202;23;20190;-79
2024/02/21 03:46:27;;;;;;;3.97;1.80;;;;;;;;;;6221303;23;20188;-79
2024/02/21 03:48:59;;;;;;;4.47;1.60;;;;;;;;;;6221039;23;20658;-79
2024/02/21 03:51:26;;;;;;;3.97;1.60;;;;;;;;;;6221669;23;20253;-79
2024/02/21 03:53:54;;;;;;;3.97;1.70;;;;;;;;;;6248145;23;20161;-79
2024/02/21 03:56:20;;;;;;;3.03;1.23;;;;;;;;;;6221222;23;20608;-79
2024/02/21 03:58:50;;;;;;;4.37;1.80;;;;;;;;;;6248329;23;20141;-79
2024/02/21 04:01:23;;;;;;;3.37;1.50;;;;;;;;;;6221136;23;20165;-79
2024/02/21 04:03:50;;;;;;;5.20;1.50;;;;;;;;;;6247579;23;20180;-80
2024/02/21 04:06:17;;;;;;;4.67;1.90;;;;;;;;;;6221336;23;20248;-79
2024/02/21 04:08:44;;;;;;;5.90;1.90;;;;;;;;;;6221218;23;20173;-79
2024/02/21 04:11:14;;;;;;;4.37;1.90;;;;;;;;;;6247985;23;20216;-79
2024/02/21 04:13:43;;;;;;;5.57;1.77;;;;;;;;;;6247850;23;20165;-79
2024/02/21 04:16:12;;;;;;;4.83;1.70;;;;;;;;;;6221073;23;20160;-79
2024/02/21 04:18:39;;;;;;;3.47;1.73;;;;;;;;;;6247225;23;20169;-79
2024/02/21 04:21:06;;;;;;;4.87;1.70;;;;;;;;;;6221237;23;20171;-79
2024/02/21 04:23:42;;;;;;;4.80;2.03;;;;;;;;;;6248660;23;20189;-79
2024/02/21 04:26:10;;;;;;;3.97;1.63;;;;;;;;;;6247706;23;20192;-79
2024/02/21 04:28:38;;;;;;;3.93;1.63;;;;;;;;;;6235290;23;20184;-79
2024/02/21 04:31:06;;;;;;;3.67;1.83;;;;;;;;;;6247064;23;20680;-79
2024/02/21 04:33:34;;;;;;;3.50;1.47;;;;;;;;;;6248125;23;20180;-80
2024/02/21 04:36:05;;;;;;;4.43;1.77;;;;;;;;;;6247703;23;20165;-79
2024/02/21 04:38:38;;;;;;;5.50;1.70;;;;;;;;;;6247727;23;20192;-79
2024/02/21 04:41:09;;;;;;;3.50;1.50;;;;;;;;;;6247848;23;20152;-79
2024/02/21 04:43:37;;;;;;;6.23;1.60;;;;;;;;;;6247408;23;20157;-79
2024/02/21 04:46:04;;;;;;;6.03;1.83;;;;;;;;;;6247639;23;20165;-79
2024/02/21 04:48:36;;;;;;;5.73;1.80;;;;;;;;;;6247241;23;20192;-79
2024/02/21 04:51:02;;;;;;;4.17;1.60;;;;;;;;;;6220303;23;20189;-79
2024/02/21 04:53:29;;;;;;;3.53;1.50;;;;;;;;;;6220752;23;20199;-79
2024/02/21 04:55:58;;;;;;;5.40;1.80;;;;;;;;;;6220660;23;20256;-79
2024/02/21 04:58:26;;;;;;;4.03;1.70;;;;;;;;;;6247310;23;20165;-79
2024/02/21 05:00:56;;;;;;;4.23;1.40;;;;;;;;;;6220629;23;20251;-79
2024/02/21 05:03:23;;;;;;;4.80;1.70;;;;;;;;;;6247286;23;20158;-79
2024/02/21 05:05:52;;;;;;;4.23;1.57;;;;;;;;;;6247260;23;20168;-79
2024/02/21 05:08:18;;;;;;;5.67;1.80;;;;;;;;;;6247346;23;20165;-79
2024/02/21 05:10:47;;;;;;;6.43;2.43;;;;;;;;;;6247236;23;20185;-79
2024/02/21 05:13:17;;;;;;;5.90;1.80;;;;;;;;;;6247053;23;20180;-79
2024/02/21 05:15:44;;;;;;;3.30;1.43;;;;;;;;;;6247020;23;20165;-78
2024/02/21 05:18:15;;;;;;;3.30;1.40;;;;;;;;;;6246775;23;20219;-79
2024/02/21 05:20:42;;;;;;;2.07;1.40;;;;;;;;;;6246385;23;20165;-79
2024/02/21 05:23:11;;;;;;;4.73;1.40;;;;;;;;;;6247221;23;20152;-79
2024/02/21 05:25:37;;;;;;;3.57;1.60;;;;;;;;;;6246732;23;20165;-79
2024/02/21 05:28:13;;;;;;;2.67;1.47;;;;;;;;;;6220691;23;20169;-79
2024/02/21 05:30:43;;;;;;;3.90;1.63;;;;;;;;;;6220772;22;20200;-80
2024/02/21 05:33:10;;;;;;;3.03;1.90;;;;;;;;;;6247177;23;20152;-80
2024/02/21 05:35:43;;;;;;;2.70;1.47;;;;;;;;;;6247317;23;20145;-79
2024/02/21 05:38:14;;;;;;;3.53;1.40;;;;;;;;;;6247281;23;20141;-79
2024/02/21 05:40:51;;;;;;;4.87;1.60;;;;;;;;;;6245716;23;20196;-79
2024/02/21 05:43:19;;;;;;;4.23;1.63;;;;;;;;;;6247672;23;20223;-80
2024/02/21 05:45:45;;;;;;;4.27;1.50;;;;;;;;;;6245655;23;20165;-80
2024/02/21 05:48:12;;;;;;;5.03;1.67;;;;;;;;;;6246433;23;20168;-79
2024/02/21 05:50:39;;;;;;;3.97;1.77;;;;;;;;;;6217993;23;20177;-80
2024/02/21 05:53:10;;;;;;;4.40;1.60;;;;;;;;;;6246735;23;20164;-80
2024/02/21 05:55:38;;;;;;;3.17;1.40;;;;;;;;;;6246365;23;20175;-80
2024/02/21 05:58:05;;;;;;;3.73;1.67;;;;;;;;;;6245255;23;20164;-79
2024/02/21 06:00:33;;;;;;;3.47;1.37;;;;;;;;;;6245416;23;20183;-79
2024/02/21 06:03:01;;;;;;;6.63;1.77;;;;;;;;;;6220160;23;20219;-80
2024/02/21 06:05:30;;;;;;;5.00;2.07;;;;;;;;;;6247216;23;20164;-80
2024/02/21 06:08:02;;;;;;;6.87;2.00;;;;;;;;;;6246784;23;20236;-79
2024/02/21 06:10:29;;;;;;;4.67;1.50;;;;;;;;;;6246777;23;20175;-79
2024/02/21 06:12:56;;;;;;;4.07;1.50;;;;;;;;;;6220252;23;20172;-80
2024/02/21 06:15:23;;;;;;;3.87;1.57;;;;;;;;;;6220057;23;20172;-80
2024/02/21 06:17:52;;;;;;;3.90;1.50;;;;;;;;;;6247222;23;20183;-79
2024/02/21 06:20:18;;;;;;;3.87;1.70;;;;;;;;;;6195219;23;20172;-80
2024/02/21 06:22:45;;;;;;;5.03;1.67;;;;;;;;;;6247105;23;20236;-80
2024/02/21 06:25:12;;;;;;;5.80;1.90;;;;;;;;;;6246716;23;20161;-78
2024/02/21 06:27:40;;;;;;;5.57;1.73;;;;;;;;;;6247024;23;20195;-80
2024/02/21 06:34:09;;;;;;;4.73;1.80;;;;;;;;;;6222064;23;20204;-80
2024/02/21 06:36:39;;;;;;;4.20;1.77;;;;;;;;;;6189728;23;20176;-80
2024/02/21 06:39:07;;;;;;;3.80;2.10;;;;;;;;;;6190085;23;20168;-79
2024/02/21 06:41:38;;;;;;;8.23;2.40;;;;;;;;;;6192383;23;20585;-79
2024/02/21 06:44:10;;;;;;;5.87;2.30;;;;;;;;;;6192019;23;20173;-80
2024/02/21 06:46:38;;;;;;;5.40;2.00;;;;;;;;;;6192059;23;20169;-79
2024/02/21 06:49:08;;;;;;;6.00;1.70;;;;;;;;;;6218610;23;20162;-80
2024/02/21 06:51:37;;;;;;;5.40;2.10;;;;;;;;;;6192021;23;20256;-79
2024/02/21 06:54:03;;;;;;;6.57;2.03;;;;;;;;;;6192412;23;20169;-79
2024/02/21 06:56:33;;;;;;;6.43;2.50;;;;;;;;;;6218330;23;20162;-79
2024/02/21 06:59:05;;;;;;;5.73;1.90;;;;;;;;;;6191417;23;20169;-80
2024/02/21 07:01:34;;;;;;;6.00;1.90;;;;;;;;;;6192431;23;20176;-79
2024/02/21 07:04:00;;;;;;;4.53;2.10;;;;;;;;;;6218849;23;20166;-79
2024/02/21 07:06:28;;;;;;;5.87;2.70;;;;;;;;;;6192249;23;20166;-79
2024/02/21 07:09:00;;;;;;;3.10;1.90;;;;;;;;;;6218903;23;20159;-79
2024/02/21 07:11:32;;;;;;;4.40;2.40;;;;;;;;;;6218170;23;20526;-79
2024/02/21 07:13:59;;;;;;;6.40;2.37;;;;;;;;;;6218157;23;20192;-80
2024/02/21 07:16:28;;;;;;;5.60;2.20;;;;;;;;;;6218101;23;20164;-80
2024/02/21 07:18:55;;;;;;;5.83;2.60;;;;;;;;;;6218173;23;20178;-79
2024/02/21 07:21:22;;;;;;;7.20;2.90;;;;;;;;;;6166751;23;20211;-80
2024/02/21 07:23:53;;;;;;;5.83;2.60;;;;;;;;;;6218150;23;20249;-80
2024/02/21 07:26:20;;;;;;;7.70;4.10;;;;;;;;;;6217935;23;20580;-80
2024/02/21 07:28:49;;;;;;;8.83;4.10;;;;;;;;;;6217770;23;20172;-80
2024/02/21 07:31:16;;;;;;;8.27;3.50;;;;;;;;;;6217625;23;20691;-80
2024/02/21 07:33:49;;;;;;;6.87;3.17;;;;;;;;;;6221019;23;20200;-80
2024/02/21 07:36:28;;;;;;;8.13;2.90;;;;;;;;;;6218733;23;20621;-79
2024/02/21 07:38:55;;;;;;;6.27;2.80;;;;;;;;;;6218111;23;20154;-80
2024/02/21 07:41:22;;;;;;;3.97;2.53;;;;;;;;;;6217546;23;20162;-80
2024/02/21 07:43:55;;;;;;;4.87;2.43;;;;;;;;;;6217766;23;20165;-80
2024/02/21 07:46:39;;;;;;;5.77;2.30;;;;;;;;;;6215922;23;20241;-80
2024/02/21 07:49:11;;;;;;;5.43;2.00;;;;;;;;;;6191190;23;20166;-80
2024/02/21 07:51:49;;;;;;;3.13;1.90;;;;;;;;;;6190794;23;20185;-80
2024/02/21 07:54:20;;;;;;;3.03;1.93;;;;;;;;;;6191047;23;20288;-80
2024/02/21 07:56:47;;;;;;;5.17;2.13;;;;;;;;;;6217666;23;20158;-80
2024/02/21 07:59:17;;;;;;;3.77;1.80;;;;;;;;;;6218128;23;20170;-80
2024/02/21 08:01:47;;;;;;;6.40;2.03;;;;;;;;;;6217733;23;20162;-80
2024/02/21 08:04:15;;;;;;;3.77;1.93;;;;;;;;;;6217866;23;20176;-80
2024/02/21 08:06:43;;;;;;;3.77;1.60;;;;;;;;;;6217842;23;20244;-80
2024/02/21 08:09:10;;;;;;;3.53;1.67;;;;;;;;;;6191873;23;20168;-80
2024/02/21 08:11:44;;;;;;;7.87;1.90;;;;;;;;;;6217923;23;20215;-80
2024/02/21 08:14:16;;;;;;;3.17;1.60;;;;;;;;;;6193083;23;20150;-80
2024/02/21 08:16:46;;;;;;;5.60;2.03;;;;;;;;;;6218707;23;20177;-80
2024/02/21 08:19:13;;;;;;;6.37;2.10;;;;;;;;;;6191136;23;20174;-80
2024/02/21 08:21:40;;;;;;;3.57;1.60;;;;;;;;;;6218677;23;20161;-80
2024/02/21 08:24:10;;;;;;;3.17;1.70;;;;;;;;;;6192448;23;20181;-80
2024/02/21 08:26:40;;;;;;;4.63;1.70;;;;;;;;;;6218998;23;20221;-80
2024/02/21 08:29:06;;;;;;;6.00;1.57;;;;;;;;;;6193017;23;20161;-80
2024/02/21 08:31:35;;;;;;;6.33;1.70;;;;;;;;;;6192606;23;20182;-80
2024/02/21 08:34:03;;;;;;;4.37;1.70;;;;;;;;;;6211437;23;20193;-80
2024/02/21 08:36:34;;;;;;;3.80;1.50;;;;;;;;;;6250134;23;20211;-80
2024/02/21 08:39:01;;;;;;;6.37;2.10;;;;;;;;;;6223323;23;20165;-80
2024/02/21 08:41:42;;;;;;;4.07;1.50;;;;;;;;;;6222898;23;20196;-80
2024/02/21 08:44:28;;;;;;;3.67;1.60;;;;;;;;;;6250280;23;20160;-80
2024/02/21 08:46:57;;;;;;;4.07;1.90;;;;;;;;;;6250015;23;20583;-80
2024/02/21 08:49:27;;;;;;;4.43;1.97;;;;;;;;;;6222464;23;20226;-81
2024/02/21 08:52:00;;;;;;;6.30;1.87;;;;;;;;;;6249631;23;20173;-80
2024/02/21 08:54:32;;;;;;;5.83;1.90;;;;;;;;;;6250411;23;20623;-80
2024/02/21 08:57:00;;;;;;;4.10;1.80;;;;;;;;;;6249563;23;20154;-80
2024/02/21 08:59:27;;;;;;;5.20;1.87;;;;;;;;;;6249637;23;20165;-80
2024/02/21 09:01:54;;;;;;;4.83;2.00;;;;;;;;;;6198088;23;20169;-81
2024/02/21 09:04:23;;;;;;;3.70;1.70;;;;;;;;;;6221972;23;20172;-80
2024/02/21 09:06:55;;;;;;;5.37;1.70;;;;;;;;;;6223926;23;20161;-80
2024/02/21 09:09:22;;;;;;;4.33;1.80;;;;;;;;;;6249987;23;20223;-82
2024/02/21 09:11:51;;;;;;;4.40;1.50;;;;;;;;;;6224373;23;20190;-80
2024/02/21 09:14:20;;;;;;;4.10;1.57;;;;;;;;;;6224036;23;20249;-80
2024/02/21 09:16:51;;;;;;;3.27;1.50;;;;;;;;;;6221629;23;20178;-80
2024/02/21 09:19:36;;;;;;;4.67;2.00;;;;;;;;;;6250809;23;20142;-80
2024/02/21 09:22:05;;;;;;;3.80;1.90;;;;;;;;;;6222311;23;20169;-80
2024/02/21 09:24:48;;;;;;;5.27;2.00;;;;;;;;;;6250940;23;20171;-80
2024/02/21 09:27:31;;;;;;;4.53;1.80;;;;;;;;;;6223083;23;20201;-80
2024/02/21 09:30:05;;;;;;;4.33;1.77;;;;;;;;;;6251659;23;20599;-80
2024/02/21 09:32:34;;;;;;;7.03;3.10;;;;;;;;;;6224298;23;20191;-80
2024/02/21 09:35:03;;;;;;;6.23;2.40;;;;;;;;;;6223295;23;20694;-80
2024/02/21 09:37:30;;;;;;;5.17;1.80;;;;;;;;;;6224806;23;20174;-80
2024/02/21 09:40:06;;;;;;;3.77;1.30;;;;;;;;;;6252319;23;20248;-80
2024/02/21 09:42:42;;;;;;;7.17;2.50;;;;;;;;;;6200178;23;20211;-80
2024/02/21 09:45:17;;;;;;;2.93;1.30;;;;;;;;;;6252807;23;20163;-80
2024/02/21 09:47:55;;;;;;;3.10;1.40;;;;;;;;;;6252603;23;20598;-80
2024/02/21 09:50:29;;;;;;;3.23;1.73;;;;;;;;;;6252490;23;20176;-81
2024/02/21 09:52:57;;;;;;;3.07;1.40;;;;;;;;;;6252588;23;20166;-80
2024/02/21 09:55:29;;;;;;;3.83;1.40;;;;;;;;;;6253028;23;20169;-80
2024/02/21 09:57:58;;;;;;;2.00;1.27;;;;;;;;;;6225804;23;20165;-80
2024/02/21 10:00:31;;;;;;;2.63;1.23;;;;;;;;;;6200680;23;20227;-80
2024/02/21 10:03:00;;;;;;;5.07;1.50;;;;;;;;;;6201229;23;20169;-80
2024/02/21 10:05:29;;;;;;;3.80;1.40;;;;;;;;;;6251791;23;20165;-80
2024/02/21 10:08:16;;;;;;;4.73;1.10;;;;;;;;;;6228725;23;20159;-81
2024/02/21 10:10:44;;;;;;;3.60;1.37;;;;;;;;;;6252077;23;20240;-80
2024/02/21 10:13:28;;;;;;;2.50;1.20;;;;;;;;;;6225666;23;20180;-80
2024/02/21 10:16:05;;;;;;;4.03;1.30;;;;;;;;;;6222497;23;20189;-81
2024/02/21 10:18:44;;;;;;;4.27;1.50;;;;;;;;;;6240606;23;20214;-80
2024/02/21 10:21:21;;;;;;;5.47;1.60;;;;;;;;;;6226395;23;20161;-80
2024/02/21 10:23:52;;;;;;;2.63;1.17;;;;;;;;;;6252931;23;20159;-80
2024/02/21 10:26:20;;;;;;;3.80;1.30;;;;;;;;;;6224710;23;20177;-81
2024/02/21 10:28:54;;;;;;;3.53;1.30;;;;;;;;;;6226970;23;20161;-80
2024/02/21 10:31:24;;;;;;;3.03;1.03;;;;;;;;;;6226664;23;20191;-80
2024/02/21 10:33:55;;;;;;;3.97;1.40;;;;;;;;;;6252219;22;20199;-80
2024/02/21 10:36:46;;;;;;;4.30;1.23;;;;;;;;;;6252291;23;20141;-80
2024/02/21 10:39:15;;;;;;;3.00;1.30;;;;;;;;;;6225827;23;20224;-81
2024/02/21 10:41:46;;;;;;;2.40;1.20;;;;;;;;;;6201791;23;20169;-80
2024/02/21 10:44:16;;;;;;;3.67;1.10;;;;;;;;;;6225941;23;20169;-80
2024/02/21 10:46:44;;;;;;;2.97;1.20;;;;;;;;;;6201109;23;20165;-80
2024/02/21 10:49:17;;;;;;;2.57;1.10;;;;;;;;;;6226272;23;20168;-81
2024/02/21 10:51:54;;;;;;;3.97;1.37;;;;;;;;;;6253134;23;20185;-81
2024/02/21 10:54:41;;;;;;;2.60;0.97;;;;;;;;;;6226197;23;20215;-80
2024/02/21 10:57:14;;;;;;;3.03;1.10;;;;;;;;;;6227236;23;20642;-80
2024/02/21 11:00:12;;;;;;;2.27;1.10;;;;;;;;;;6226474;23;20192;-80
2024/02/21 11:02:51;;;;;;;3.73;1.70;;;;;;;;;;6253247;23;20153;-81
2024/02/21 11:05:19;;;;;;;3.30;1.40;;;;;;;;;;6225656;23;20188;-80
2024/02/21 11:07:51;;;;;;;3.60;1.30;;;;;;;;;;6252802;23;20157;-80
2024/02/21 11:10:25;;;;;;;2.67;1.10;;;;;;;;;;6226867;23;20161;-80
2024/02/21 11:13:10;;;;;;;2.97;1.20;;;;;;;;;;6226719;23;20196;-80
2024/02/21 11:15:42;;;;;;;2.30;1.10;;;;;;;;;;6225132;23;20176;-80
2024/02/21 11:18:22;;;;;;;2.00;1.03;;;;;;;;;;6252493;23;20240;-81
2024/02/21 11:20:54;;;;;;;3.30;1.30;;;;;;;;;;6253223;23;20205;-80
2024/02/21 11:23:28;;;;;;;3.93;1.13;;;;;;;;;;6188818;23;20197;-81
2024/02/21 11:26:24;;;;;;;2.30;1.00;;;;;;;;;;6219616;23;20248;-81
2024/02/21 11:29:05;;;;;;;3.43;1.20;;;;;;;;;;6244117;23;20181;-81
2024/02/21 11:31:40;;;;;;;3.20;1.20;;;;;;;;;;6196277;23;20196;-82
2024/02/21 11:34:10;;;;;;;3.03;1.20;;;;;;;;;;6247512;22;20189;-81
2024/02/21 11:36:49;;;;;;;2.37;1.10;;;;;;;;;;6247354;23;20193;-80
2024/02/21 11:39:23;;;;;;;3.67;1.50;;;;;;;;;;6220945;23;20170;-81
2024/02/21 11:42:07;;;;;;;3.23;1.20;;;;;;;;;;6247508;23;20172;-81
2024/02/21 11:44:42;;;;;;;3.00;1.27;;;;;;;;;;6247934;23;20212;-81
2024/02/21 11:47:09;;;;;;;4.80;1.30;;;;;;;;;;6221024;23;20171;-80
2024/02/21 11:49:38;;;;;;;1.90;1.23;;;;;;;;;;6195681;23;20177;-82
2024/02/21 11:52:05;;;;;;;3.33;1.13;;;;;;;;;;6247077;23;20325;-81
2024/02/21 11:54:34;;;;;;;3.90;1.37;;;;;;;;;;6220475;23;20173;-81
2024/02/21 11:57:04;;;;;;;3.07;1.37;;;;;;;;;;6247364;23;20191;-80
2024/02/21 11:59:34;;;;;;;2.80;1.00;;;;;;;;;;6220028;23;20265;-81
2024/02/21 12:02:06;;;;;;;1.90;1.00;;;;;;;;;;6195751;23;20196;-80
2024/02/21 12:04:38;;;;;;;2.57;1.00;;;;;;;;;;6221760;23;20228;-80
2024/02/21 12:07:08;;;;;;;3.60;1.20;;;;;;;;;;6247225;23;20166;-81
2024/02/21 12:09:35;;;;;;;3.07;1.10;;;;;;;;;;6220514;23;20204;-80
2024/02/21 12:12:09;;;;;;;1.87;0.93;;;;;;;;;;6247265;23;20192;-80
2024/02/21 12:14:38;;;;;;;2.67;1.20;;;;;;;;;;6219147;23;20220;-80
2024/02/21 12:17:15;;;;;;;3.07;0.90;;;;;;;;;;6246233;23;20199;-80
2024/02/21 12:19:45;;;;;;;2.83;1.13;;;;;;;;;;6195698;23;20172;-80
2024/02/21 12:22:19;;;;;;;2.73;1.27;;;;;;;;;;6219683;23;20223;-80
2024/02/21 12:24:57;;;;;;;3.70;1.30;;;;;;;;;;6249034;23;20159;-79
2024/02/21 12:27:25;;;;;;;3.27;1.00;;;;;;;;;;6225400;23;20157;-79
2024/02/21 12:29:54;;;;;;;4.10;1.17;;;;;;;;;;6225082;23;20146;-79
2024/02/21 12:32:21;;;;;;;3.77;1.10;;;;;;;;;;6225124;23;20209;-79
2024/02/21 12:34:53;;;;;;;4.37;2.40;;;;;;;;;;6226664;23;20185;-78
2024/02/21 12:37:25;;;;;;;3.80;1.17;;;;;;;;;;6223932;23;20165;-80
2024/02/21 12:39:55;;;;;;;3.87;1.40;;;;;;;;;;6250881;23;20156;-79
2024/02/21 12:42:23;;;;;;;3.80;0.97;;;;;;;;;;6251979;23;20164;-79
2024/02/21 12:44:53;;;;;;;6.57;1.37;;;;;;;;;;6251669;23;20149;-79
2024/02/21 12:47:30;;;;;;;2.47;1.10;;;;;;;;;;6224616;23;20165;-79
2024/02/21 12:50:03;;;;;;;3.00;1.10;;;;;;;;;;6226303;23;20141;-79
2024/02/21 12:52:35;;;;;;;4.43;1.17;;;;;;;;;;6226663;23;20177;-79
2024/02/21 12:55:10;;;;;;;3.23;1.10;;;;;;;;;;6224452;23;20225;-79
2024/02/21 12:57:48;;;;;;;3.43;1.10;;;;;;;;;;6223911;23;20172;-79
2024/02/21 13:00:27;;;;;;;3.33;0.93;;;;;;;;;;6226026;23;20154;-79
2024/02/21 13:02:58;;;;;;;3.40;1.00;;;;;;;;;;6199817;23;20169;-79
2024/02/21 13:05:27;;;;;;;2.57;1.07;;;;;;;;;;6224484;23;20192;-80
2024/02/21 13:07:57;;;;;;;4.67;1.10;;;;;;;;;;6251036;23;20665;-81
2024/02/21 13:10:27;;;;;;;3.23;1.20;;;;;;;;;;6224700;23;20172;-79
2024/02/21 13:12:54;;;;;;;1.63;1.00;;;;;;;;;;6251531;23;20213;-79
2024/02/21 13:19:29;;;;;;;3.20;1.20;;;;;;;;;;6251593;23;20132;-79
2024/02/21 13:21:56;;;;;;;3.13;1.23;;;;;;;;;;6200365;23;20220;-79
2024/02/21 13:24:24;;;;;;;3.17;1.10;;;;;;;;;;6225683;23;20169;-79
2024/02/21 13:26:59;;;;;;;3.13;1.10;;;;;;;;;;6202969;23;20207;-79
2024/02/21 13:29:35;;;;;;;3.43;1.20;;;;;;;;;;6224823;23;20199;-79
2024/02/21 13:32:05;;;;;;;2.37;1.00;;;;;;;;;;6224308;23;20682;-78
2024/02/21 13:34:38;;;;;;;2.50;1.20;;;;;;;;;;6251104;22;20200;-78
2024/02/21 13:37:09;;;;;;;4.33;1.17;;;;;;;;;;6225036;23;20192;-80
2024/02/21 13:39:38;;;;;;;3.70;1.27;;;;;;;;;;6200094;23;20169;-79
2024/02/21 13:42:10;;;;;;;3.43;1.30;;;;;;;;;;6226192;23;20624;-79
2024/02/21 13:44:49;;;;;;;6.37;1.20;;;;;;;;;;6224595;23;20223;-79
2024/02/21 13:47:20;;;;;;;2.43;1.10;;;;;;;;;;6251842;23;20626;-79
2024/02/21 13:49:48;;;;;;;3.77;1.10;;;;;;;;;;6226684;23;20176;-81
2024/02/21 13:52:26;;;;;;;2.27;1.17;;;;;;;;;;6252337;23;20201;-80
2024/02/21 13:54:54;;;;;;;3.37;1.10;;;;;;;;;;6224130;23;20604;-79
2024/02/21 13:57:25;;;;;;;2.37;0.93;;;;;;;;;;6220871;23;20617;-73
2024/02/21 13:59:51;;;;;;;3.03;1.20;;;;;;;;;;6245663;23;20171;-75
2024/02/21 14:02:18;;;;;;;3.97;1.17;;;;;;;;;;6245789;23;20161;-74
2024/02/21 14:04:45;;;;;;;2.47;1.03;;;;;;;;;;6246247;23;20168;-74
2024/02/21 14:07:11;;;;;;;2.80;1.23;;;;;;;;;;6246224;23;20165;-77
2024/02/21 14:09:39;;;;;;;4.47;1.27;;;;;;;;;;6246041;23;20165;-75
2024/02/21 14:12:09;;;;;;;3.57;1.27;;;;;;;;;;6246084;23;20231;-74
2024/02/21 14:14:37;;;;;;;2.83;1.20;;;;;;;;;;6246161;23;20211;-75
2024/02/21 14:17:06;;;;;;;1.93;0.90;;;;;;;;;;6246636;23;20169;-74
2024/02/21 14:19:34;;;;;;;3.23;1.07;;;;;;;;;;6246148;23;20165;-75
2024/02/21 14:22:03;;;;;;;3.93;1.20;;;;;;;;;;6245816;23;20161;-75
2024/02/21 14:24:31;;;;;;;3.63;1.27;;;;;;;;;;6246254;23;20161;-74
2024/02/21 14:26:59;;;;;;;2.93;1.00;;;;;;;;;;6246752;23;20168;-75
2024/02/21 14:29:26;;;;;;;2.13;1.10;;;;;;;;;;6245495;23;20161;-76
2024/02/21 14:31:52;;;;;;;3.93;1.40;;;;;;;;;;6245673;23;20161;-74
2024/02/21 14:34:22;;;;;;;3.40;1.23;;;;;;;;;;6245450;22;20199;-77
2024/02/21 14:36:49;;;;;;;2.63;1.20;;;;;;;;;;6245636;23;20165;-76
2024/02/21 14:39:16;;;;;;;2.57;1.20;;;;;;;;;;6245955;23;20212;-75
2024/02/21 14:41:43;;;;;;;3.30;1.40;;;;;;;;;;6245693;23;20171;-74
2024/02/21 14:44:10;;;;;;;2.90;1.10;;;;;;;;;;6245737;23;20173;-74
2024/02/21 14:46:38;;;;;;;5.67;1.30;;;;;;;;;;6246157;23;20236;-74
2024/02/21 14:49:07;;;;;;;2.80;1.20;;;;;;;;;;6246228;23;20149;-74
2024/02/21 14:51:35;;;;;;;3.00;1.30;;;;;;;;;;6246112;23;20600;-74
2024/02/21 14:54:03;;;;;;;2.40;1.07;;;;;;;;;;6245941;23;20181;-74
2024/02/21 14:56:31;;;;;;;2.73;1.00;;;;;;;;;;6245788;23;20162;-74
2024/02/21 14:58:58;;;;;;;4.37;1.40;;;;;;;;;;6245908;23;20191;-75
2024/02/21 15:01:39;;;;;;;3.13;1.10;;;;;;;;;;6246148;23;20148;-75
2024/02/21 15:04:05;;;;;;;3.40;1.10;;;;;;;;;;6247707;23;20168;-74
2024/02/21 15:06:32;;;;;;;3.97;1.20;;;;;;;;;;6247635;23;20212;-74
2024/02/21 15:08:59;;;;;;;3.43;1.40;;;;;;;;;;6247675;23;20185;-75
2024/02/21 15:11:26;;;;;;;2.70;1.23;;;;;;;;;;6248045;23;20168;-75